createdAt,value
2018-06-30T00:02:24.361Z,98112.92
2018-06-30T00:04:54.197Z,98117.70
2018-06-30T00:07:23.912Z,98108.18
2018-06-30T00:09:52.974Z,98114.92
2018-06-30T00:12:22.017Z,98116.44
2018-06-30T00:14:51.136Z,98116.69
2018-06-30T00:17:20.158Z,98108.02
2018-06-30T00:19:49.234Z,98110.09
2018-06-30T00:22:18.109Z,98107.19
2018-06-30T00:24:46.853Z,98120.88
2018-06-30T00:27:21.465Z,98119.56
2018-06-30T00:29:50.570Z,98122.20
2018-06-30T00:32:20.016Z,98112.89
2018-06-30T00:34:49.773Z,98113.72
2018-06-30T00:37:18.896Z,98114.82
2018-06-30T00:39:48.764Z,98105.06
2018-06-30T00:42:17.986Z,98108.75
2018-06-30T00:44:46.924Z,98115.03
2018-06-30T00:47:16.915Z,98112.20
2018-06-30T00:49:45.881Z,98108.31
2018-06-30T00:52:14.897Z,98109.09
2018-06-30T00:54:43.845Z,98104.89
2018-06-30T00:57:12.871Z,98114.80
2018-06-30T00:59:42.437Z,98111.30
2018-06-30T01:02:12.349Z,98109.36
2018-06-30T01:04:42.047Z,98107.66
2018-06-30T01:07:11.726Z,98106.80
2018-06-30T01:09:41.197Z,98104.25
2018-06-30T01:12:10.274Z,98109.58
2018-06-30T01:14:39.098Z,98105.64
2018-06-30T01:17:08.412Z,98107.32
2018-06-30T01:19:37.292Z,98101.75
2018-06-30T01:22:06.381Z,98106.77
2018-06-30T01:24:35.340Z,98112.47
2018-06-30T01:27:04.168Z,98104.89
2018-06-30T01:29:33.535Z,98113.66
2018-06-30T01:32:02.516Z,98112.66
2018-06-30T01:34:31.371Z,98115.66
2018-06-30T01:37:00.231Z,98118.61
2018-06-30T01:39:29.149Z,98108.54
2018-06-30T01:41:58.690Z,98108.14
2018-06-30T01:44:28.683Z,98106.25
2018-06-30T01:46:58.333Z,98098.44
2018-06-30T01:49:27.237Z,98105.47
2018-06-30T01:51:56.770Z,98104.86
2018-06-30T01:54:25.512Z,98102.17
2018-06-30T01:56:54.521Z,98099.14
2018-06-30T01:59:23.337Z,98096.33
2018-06-30T02:01:52.312Z,98101.17
2018-06-30T02:04:21.262Z,98101.33
2018-06-30T02:06:50.321Z,98097.11
2018-06-30T02:09:19.194Z,98094.60
2018-06-30T02:11:48.921Z,98096.94
2018-06-30T02:14:17.844Z,98096.94
2018-06-30T02:16:46.675Z,98100.53
2018-06-30T02:19:15.583Z,98097.48
2018-06-30T02:21:45.391Z,98097.17
2018-06-30T02:24:15.395Z,98097.81
2018-06-30T02:26:44.304Z,98098.19
2018-06-30T02:29:14.167Z,98103.83
2018-06-30T02:31:44.645Z,98098.83
2018-06-30T02:34:13.503Z,98096.39
2018-06-30T02:36:42.505Z,98099.62
2018-06-30T02:39:11.631Z,98102.41
2018-06-30T02:41:40.430Z,98098.98
2018-06-30T02:44:09.262Z,98101.97
2018-06-30T02:46:38.635Z,98102.12
2018-06-30T02:49:07.591Z,98107.03
2018-06-30T02:51:36.449Z,98103.11
2018-06-30T02:54:05.768Z,98106.24
2018-06-30T02:56:34.782Z,98102.80
2018-06-30T02:59:03.601Z,98108.48
2018-06-30T03:01:34.311Z,98101.39
2018-06-30T03:04:04.069Z,98101.86
2018-06-30T03:06:33.507Z,98096.11
2018-06-30T03:09:02.420Z,98101.27
2018-06-30T03:11:31.311Z,98099.20
2018-06-30T03:14:00.189Z,98099.14
2018-06-30T03:16:29.233Z,98100.63
2018-06-30T03:18:59.117Z,98098.34
2018-06-30T03:21:28.854Z,98101.16
2018-06-30T03:23:58.088Z,98094.66
2018-06-30T03:26:27.262Z,98101.78
2018-06-30T03:28:56.255Z,98104.82
2018-06-30T03:31:25.043Z,98095.84
2018-06-30T03:33:54.049Z,98098.52
2018-06-30T03:36:23.015Z,98104.56
2018-06-30T03:38:52.023Z,98098.92
2018-06-30T03:41:20.936Z,98102.22
2018-06-30T03:43:49.934Z,98099.56
2018-06-30T03:46:18.971Z,98109.34
2018-06-30T03:48:48.861Z,98113.55
2018-06-30T03:51:18.315Z,98109.57
2018-06-30T03:53:47.707Z,98115.42
2018-06-30T03:56:16.602Z,98114.50
2018-06-30T03:58:46.148Z,98111.69
2018-06-30T04:01:15.043Z,98116.00
2018-06-30T04:03:44.347Z,98116.26
2018-06-30T04:06:13.506Z,98119.08
2018-06-30T04:08:42.341Z,98124.97
2018-06-30T04:11:11.631Z,98123.97
2018-06-30T04:13:41.316Z,98121.03
2018-06-30T04:16:10.728Z,98115.02
2018-06-30T04:18:39.728Z,98116.72
2018-06-30T04:21:09.009Z,98119.95
2018-06-30T04:23:37.706Z,98116.20
2018-06-30T04:26:06.933Z,98120.19
2018-06-30T04:28:35.660Z,98115.73
2018-06-30T04:31:04.313Z,98118.77
2018-06-30T04:33:33.757Z,98122.50
2018-06-30T04:36:02.603Z,98123.74
2018-06-30T04:38:31.523Z,98120.77
2018-06-30T04:41:00.912Z,98125.22
2018-06-30T04:43:29.885Z,98121.62
2018-06-30T04:45:59.001Z,98125.08
2018-06-30T04:48:27.762Z,98127.39
2018-06-30T04:50:57.073Z,98123.67
2018-06-30T04:53:26.271Z,98126.64
2018-06-30T04:55:55.381Z,98121.61
2018-06-30T04:58:24.313Z,98126.52
2018-06-30T05:00:54.850Z,98128.94
2018-06-30T05:03:24.285Z,98133.92
2018-06-30T05:05:53.070Z,98128.83
2018-06-30T05:08:22.478Z,98117.67
2018-06-30T05:10:51.840Z,98121.36
2018-06-30T05:13:21.344Z,98119.88
2018-06-30T05:15:50.646Z,98116.70
2018-06-30T05:18:20.299Z,98117.30
2018-06-30T05:26:35.176Z,98116.48
2018-06-30T05:29:04.506Z,98123.29
2018-06-30T05:31:33.427Z,98124.83
2018-06-30T05:34:02.034Z,98126.30
2018-06-30T05:36:31.178Z,98129.06
2018-06-30T05:39:00.344Z,98125.17
2018-06-30T05:44:26.238Z,98126.56
2018-06-30T05:46:55.235Z,98128.93
2018-06-30T05:49:24.397Z,98128.45
2018-06-30T05:51:53.348Z,98132.45
2018-06-30T05:54:22.720Z,98130.83
2018-06-30T05:56:51.627Z,98134.88
2018-06-30T05:59:21.279Z,98133.17
2018-06-30T06:01:50.193Z,98137.65
2018-06-30T06:04:19.144Z,98142.84
2018-06-30T06:06:48.302Z,98138.81
2018-06-30T06:09:18.174Z,98134.75
2018-06-30T06:11:47.414Z,98138.23
2018-06-30T06:14:16.104Z,98143.28
2018-06-30T06:16:45.155Z,98145.66
2018-06-30T06:19:15.298Z,98146.75
2018-06-30T06:21:46.474Z,98141.88
2018-06-30T06:24:15.319Z,98142.43
2018-06-30T06:26:44.606Z,98146.77
2018-06-30T06:29:14.057Z,98138.80
2018-06-30T06:31:43.045Z,98137.33
2018-06-30T06:39:57.176Z,98147.74
2018-06-30T06:42:26.108Z,98147.75
2018-06-30T06:44:54.871Z,98152.86
2018-06-30T06:47:23.735Z,98146.88
2018-06-30T06:49:53.131Z,98151.03
2018-06-30T06:52:22.161Z,98148.18
2018-06-30T06:54:52.807Z,98143.45
2018-06-30T06:57:21.783Z,98145.54
2018-06-30T06:59:50.645Z,98147.70
2018-06-30T07:02:19.883Z,98144.93
2018-06-30T07:04:48.730Z,98144.12
2018-06-30T07:07:18.120Z,98138.88
2018-06-30T07:09:47.181Z,98142.92
2018-06-30T07:12:16.241Z,98137.98
2018-06-30T07:14:45.862Z,98142.94
2018-06-30T07:17:15.265Z,98142.14
2018-06-30T07:19:44.192Z,98138.36
2018-06-30T07:22:13.241Z,98137.44
2018-06-30T07:24:42.402Z,98134.25
2018-06-30T07:27:11.318Z,98138.77
2018-06-30T07:29:52.244Z,98135.11
2018-06-30T07:32:21.390Z,98135.55
2018-06-30T07:34:50.033Z,98125.93
2018-06-30T07:37:19.466Z,98129.67
2018-06-30T07:39:48.318Z,98134.17
2018-06-30T07:42:17.321Z,98134.72
2018-06-30T07:44:48.735Z,98143.50
2018-06-30T07:47:17.808Z,98141.05
2018-06-30T07:49:46.955Z,98139.82
2018-06-30T07:52:15.545Z,98140.14
2018-06-30T07:54:51.227Z,98139.11
2018-06-30T07:57:20.112Z,98137.14
2018-06-30T07:59:49.227Z,98136.55
2018-06-30T08:02:18.146Z,98136.41
2018-06-30T08:04:47.011Z,98137.76
2018-06-30T08:07:16.892Z,98132.38
2018-06-30T08:09:47.146Z,98128.85
2018-06-30T08:12:16.261Z,98131.83
2018-06-30T08:14:45.180Z,98124.21
2018-06-30T08:17:14.098Z,98123.00
2018-06-30T08:19:43.033Z,98124.15
2018-06-30T08:22:13.714Z,98128.95
2018-06-30T08:24:43.117Z,98123.11
2018-06-30T08:27:12.461Z,98124.41
2018-06-30T08:29:41.358Z,98123.86
2018-06-30T08:32:10.467Z,98117.18
2018-06-30T08:34:39.599Z,98122.30
2018-06-30T08:37:09.011Z,98118.87
2018-06-30T08:39:38.194Z,98121.30
2018-06-30T08:42:07.113Z,98130.55
2018-06-30T08:44:36.653Z,98128.43
2018-06-30T08:47:27.105Z,98126.14
2018-06-30T08:50:01.921Z,98131.58
2018-06-30T08:52:31.470Z,98132.96
2018-06-30T08:55:00.933Z,98133.28
2018-06-30T08:57:39.881Z,98132.58
2018-06-30T09:00:09.329Z,98110.98
2018-06-30T09:02:44.654Z,98137.22
2018-06-30T09:05:14.139Z,98130.00
2018-06-30T09:07:43.195Z,98121.44
2018-06-30T09:10:12.597Z,98123.42
2018-06-30T09:12:41.381Z,98124.55
2018-06-30T09:15:11.926Z,98118.63
2018-06-30T09:17:43.216Z,98118.23
2018-06-30T09:20:13.182Z,98119.16
2018-06-30T09:22:42.135Z,98106.23
2018-06-30T09:25:11.152Z,98118.57
2018-06-30T09:27:40.141Z,98114.02
2018-06-30T09:30:10.265Z,98112.06
2018-06-30T09:32:39.170Z,98111.63
2018-06-30T09:35:08.385Z,98110.53
2018-06-30T09:37:38.353Z,98110.22
2018-06-30T09:40:07.481Z,98105.04
2018-06-30T09:42:36.510Z,98104.85
2018-06-30T09:45:06.306Z,98110.71
2018-06-30T09:47:34.997Z,98112.09
2018-06-30T09:50:04.025Z,98113.54
2018-06-30T09:52:32.892Z,98117.40
2018-06-30T09:55:01.875Z,98113.48
2018-06-30T09:57:30.725Z,98111.99
2018-06-30T09:59:59.504Z,98115.59
2018-06-30T10:02:28.615Z,98110.39
2018-06-30T10:04:58.935Z,98105.70
2018-06-30T10:07:28.422Z,98105.45
2018-06-30T10:09:57.797Z,98101.05
2018-06-30T10:15:35.126Z,98102.84
2018-06-30T10:18:04.051Z,98099.30
2018-06-30T10:20:33.114Z,98102.11
2018-06-30T10:23:02.002Z,98099.58
2018-06-30T10:25:31.046Z,98093.84
2018-06-30T10:27:59.729Z,98092.92
2018-06-30T10:30:28.650Z,98094.13
2018-06-30T10:32:57.594Z,98090.27
2018-06-30T10:35:27.720Z,98091.64
2018-06-30T10:37:57.224Z,98080.94
2018-06-30T10:40:26.203Z,98073.93
2018-06-30T10:42:55.248Z,98079.38
2018-06-30T10:45:24.097Z,98074.66
2018-06-30T10:47:53.212Z,98077.73
2018-06-30T10:50:22.272Z,98072.45
2018-06-30T10:52:51.311Z,98068.57
2018-06-30T10:55:20.138Z,98063.14
2018-06-30T10:57:50.808Z,98062.98
2018-06-30T11:00:19.952Z,98064.18
2018-06-30T11:02:49.050Z,98070.33
2018-06-30T11:05:17.923Z,98068.27
2018-06-30T11:07:49.017Z,98064.87
2018-06-30T11:10:18.331Z,98066.89
2018-06-30T11:12:47.861Z,98063.43
2018-06-30T11:15:16.924Z,98059.41
2018-06-30T11:17:47.069Z,98058.53
2018-06-30T11:20:16.213Z,98057.55
2018-06-30T11:22:45.372Z,98061.59
2018-06-30T11:25:14.935Z,98050.46
2018-06-30T11:27:43.714Z,98058.86
2018-06-30T11:30:12.759Z,98054.52
2018-06-30T11:32:42.071Z,98046.33
2018-06-30T11:35:11.088Z,98038.88
2018-06-30T11:37:39.859Z,98039.61
2018-06-30T11:40:08.977Z,98033.28
2018-06-30T11:42:37.904Z,98032.71
2018-06-30T11:45:07.231Z,98034.53
2018-06-30T11:47:36.437Z,98033.91
2018-06-30T11:50:06.600Z,98036.11
2018-06-30T11:52:36.721Z,98030.95
2018-06-30T11:55:05.552Z,98029.76
2018-06-30T11:57:34.488Z,98031.86
2018-06-30T12:00:03.770Z,98031.74
2018-06-30T12:02:32.778Z,98027.16
2018-06-30T12:05:01.593Z,98029.92
2018-06-30T12:07:30.530Z,98019.19
2018-06-30T12:09:59.469Z,98014.64
2018-06-30T12:12:28.772Z,98009.27
2018-06-30T12:14:57.968Z,98009.70
2018-06-30T12:17:26.735Z,98011.48
2018-06-30T12:19:55.962Z,98009.77
2018-06-30T12:22:33.008Z,98011.87
2018-06-30T12:25:01.945Z,98008.47
2018-06-30T12:27:31.372Z,98007.76
2018-06-30T12:30:02.097Z,98004.25
2018-06-30T12:32:30.920Z,97997.48
2018-06-30T12:34:59.905Z,97993.53
2018-06-30T12:37:28.841Z,97998.34
2018-06-30T12:39:57.701Z,97994.69
2018-06-30T12:42:26.546Z,97988.55
2018-06-30T12:44:55.407Z,97992.43
2018-06-30T12:47:24.119Z,97997.48
2018-06-30T12:49:53.490Z,97994.43
2018-06-30T12:52:22.444Z,97990.22
2018-06-30T12:54:51.502Z,97988.73
2018-06-30T12:57:20.367Z,97991.08
2018-06-30T12:59:49.761Z,97989.58
2018-06-30T13:02:19.317Z,97984.75
2018-06-30T13:04:48.181Z,97982.20
2018-06-30T13:07:17.447Z,97975.48
2018-06-30T13:09:46.414Z,97976.17
2018-06-30T13:12:15.323Z,97977.88
2018-06-30T13:14:45.108Z,97975.80
2018-06-30T13:17:13.943Z,97976.23
2018-06-30T13:19:42.934Z,97968.06
2018-06-30T13:22:12.481Z,97964.23
2018-06-30T13:24:41.672Z,97963.77
2018-06-30T13:27:10.773Z,97958.41
2018-06-30T13:29:40.189Z,97962.62
2018-06-30T13:32:09.464Z,97961.50
2018-06-30T13:34:38.566Z,97959.75
2018-06-30T13:37:07.593Z,97952.67
2018-06-30T13:39:36.453Z,97963.84
2018-06-30T13:42:05.366Z,97964.38
2018-06-30T13:44:34.406Z,97958.96
2018-06-30T13:47:03.730Z,97961.88
2018-06-30T13:49:32.519Z,97961.20
2018-06-30T13:52:01.585Z,97950.82
2018-06-30T13:54:30.395Z,97962.19
2018-06-30T13:56:59.949Z,97955.55
2018-06-30T13:59:29.350Z,97956.11
2018-06-30T14:01:58.880Z,97945.34
2018-06-30T14:04:27.604Z,97950.25
2018-06-30T14:06:56.530Z,97937.70
2018-06-30T14:09:25.950Z,97934.08
2018-06-30T14:11:55.563Z,97944.30
2018-06-30T14:14:24.885Z,97940.88
2018-06-30T14:16:53.605Z,97939.42
2018-06-30T14:19:22.594Z,97936.67
2018-06-30T14:21:51.585Z,97938.25
2018-06-30T14:24:20.554Z,97943.73
2018-06-30T14:26:49.471Z,97952.25
2018-06-30T14:29:18.556Z,97956.45
2018-06-30T14:31:47.474Z,97954.98
2018-06-30T14:34:16.403Z,97945.45
2018-06-30T14:36:45.687Z,97947.68
2018-06-30T14:39:14.980Z,97941.42
2018-06-30T14:41:44.233Z,97940.27
2018-06-30T14:44:13.833Z,97942.18
2018-06-30T14:46:42.835Z,97941.38
2018-06-30T14:49:11.851Z,97932.66
2018-06-30T14:51:41.437Z,97939.50
2018-06-30T14:54:10.175Z,97938.86
2018-06-30T14:56:39.128Z,97935.75
2018-06-30T14:59:08.158Z,97929.05
2018-06-30T15:01:37.079Z,97927.45
2018-06-30T15:04:05.874Z,97930.42
2018-06-30T15:06:34.911Z,97924.77
2018-06-30T15:09:04.626Z,97927.42
2018-06-30T15:11:33.372Z,97914.56
2018-06-30T15:14:02.402Z,97928.19
2018-06-30T15:16:31.052Z,97930.42
2018-06-30T15:19:00.242Z,97928.98
2018-06-30T15:21:29.057Z,97919.24
2018-06-30T15:23:58.484Z,97919.63
2018-06-30T15:26:27.910Z,97909.00
2018-06-30T15:28:57.350Z,97915.48
2018-06-30T15:31:26.605Z,97911.96
2018-06-30T15:33:55.344Z,97916.42
2018-06-30T15:36:24.264Z,97900.13
2018-06-30T15:38:53.487Z,97904.91
2018-06-30T15:41:22.326Z,97905.09
2018-06-30T15:43:51.242Z,97894.95
2018-06-30T15:46:20.284Z,97910.07
2018-06-30T15:48:49.179Z,97902.59
2018-06-30T15:51:18.260Z,97902.12
2018-06-30T15:53:47.753Z,97897.69
2018-06-30T15:56:16.720Z,97901.30
2018-06-30T15:58:45.764Z,97897.03
2018-06-30T16:01:14.781Z,97904.81
2018-06-30T16:03:49.101Z,97908.39
2018-06-30T16:06:17.965Z,97906.00
2018-06-30T16:08:47.645Z,97907.91
2018-06-30T16:11:16.487Z,97904.59
2018-06-30T16:13:45.505Z,97903.94
2018-06-30T16:16:14.728Z,97903.63
2018-06-30T16:18:43.600Z,97896.43
2018-06-30T16:21:12.895Z,97909.72
2018-06-30T16:23:42.062Z,97907.73
2018-06-30T16:26:12.068Z,97904.70
2018-06-30T16:28:41.051Z,97898.47
2018-06-30T16:31:10.255Z,97897.72
2018-06-30T16:33:39.349Z,97896.62
2018-06-30T16:36:08.154Z,97902.25
2018-06-30T16:38:36.975Z,97900.92
2018-06-30T16:41:06.107Z,97892.08
2018-06-30T16:43:35.011Z,97892.17
2018-06-30T16:46:04.176Z,97893.19
2018-06-30T16:48:32.985Z,97889.21
2018-06-30T16:51:02.646Z,97893.34
2018-06-30T16:53:31.494Z,97891.69
2018-06-30T16:56:00.568Z,97888.22
2018-06-30T16:58:29.202Z,97894.08
2018-06-30T17:00:58.658Z,97891.84
2018-06-30T17:03:27.693Z,97893.67
2018-06-30T17:05:56.696Z,97885.75
2018-06-30T17:08:26.699Z,97898.42
2018-06-30T17:10:56.696Z,97890.70
2018-06-30T17:13:25.584Z,97895.45
2018-06-30T17:15:54.425Z,97886.73
2018-06-30T17:18:23.302Z,97887.67
2018-06-30T17:20:55.289Z,97886.23
2018-06-30T17:23:24.581Z,97881.00
2018-06-30T17:25:53.588Z,97885.13
2018-06-30T17:28:22.488Z,97879.13
2018-06-30T17:30:51.711Z,97883.26
2018-06-30T17:33:20.568Z,97881.70
2018-06-30T17:35:50.029Z,97884.54
2018-06-30T17:38:19.011Z,97882.34
2018-06-30T17:40:48.896Z,97879.14
2018-06-30T17:43:17.864Z,97885.68
2018-06-30T17:45:46.938Z,97887.61
2018-06-30T17:48:15.914Z,97883.71
2018-06-30T17:50:44.857Z,97886.50
2018-06-30T17:53:14.281Z,97888.51
2018-06-30T17:55:44.067Z,97888.26
2018-06-30T17:58:13.104Z,97892.48
2018-06-30T18:00:43.029Z,97897.71
2018-06-30T18:03:12.291Z,97905.48
2018-06-30T18:05:41.453Z,97900.11
2018-06-30T18:08:10.350Z,97894.78
2018-06-30T18:10:39.423Z,97900.92
2018-06-30T18:13:08.638Z,97917.73
2018-06-30T18:15:38.077Z,97911.70
2018-06-30T18:18:07.315Z,97923.50
2018-06-30T18:20:36.963Z,97924.27
2018-06-30T18:23:05.962Z,97931.94
2018-06-30T18:25:34.952Z,97931.94
2018-06-30T18:28:03.768Z,97927.77
2018-06-30T18:30:33.348Z,97933.49
2018-06-30T18:33:03.354Z,97937.64
2018-06-30T18:35:32.246Z,97940.47
2018-06-30T18:38:01.964Z,97946.45
2018-06-30T18:40:31.497Z,97946.45
2018-06-30T18:43:01.208Z,97953.05
2018-06-30T18:45:30.148Z,97949.20
2018-06-30T18:47:58.972Z,97952.00
2018-06-30T18:50:28.398Z,97953.68
2018-06-30T18:52:57.939Z,97964.48
2018-06-30T18:55:27.147Z,97964.70
2018-06-30T18:57:56.078Z,97964.77
2018-06-30T19:00:24.978Z,97967.64
2018-06-30T19:02:53.956Z,97967.55
2018-06-30T19:05:23.847Z,97966.80
2018-06-30T19:07:53.449Z,97966.20
2018-06-30T19:10:22.524Z,97974.13
2018-06-30T19:12:51.586Z,97979.55
2018-06-30T19:15:20.848Z,97976.61
2018-06-30T19:17:50.095Z,97982.18
2018-06-30T19:20:19.135Z,97981.84
2018-06-30T19:22:48.047Z,97982.41
2018-06-30T19:25:16.998Z,97988.10
2018-06-30T19:27:46.270Z,97987.95
2018-06-30T19:30:15.388Z,97991.88
2018-06-30T19:32:44.342Z,98002.78
2018-06-30T19:35:13.764Z,97999.23
2018-06-30T19:37:43.094Z,97997.34
2018-06-30T19:40:12.216Z,98006.68
2018-06-30T19:42:41.177Z,98015.41
2018-06-30T19:45:10.604Z,98016.75
2018-06-30T19:47:39.509Z,98014.69
2018-06-30T19:50:08.529Z,98024.80
2018-06-30T19:52:38.578Z,98021.41
2018-06-30T19:55:08.197Z,98030.54
2018-06-30T19:57:37.283Z,98031.78
2018-06-30T20:00:07.682Z,98037.47
2018-06-30T20:02:37.519Z,98039.55
2018-06-30T20:05:06.199Z,98036.84
2018-06-30T20:07:40.986Z,98047.16
2018-06-30T20:10:09.933Z,98038.33
2018-06-30T20:12:38.999Z,98040.63
2018-06-30T20:15:08.121Z,98047.81
2018-06-30T20:17:37.103Z,98044.78
2018-06-30T20:20:06.391Z,98045.98
2018-06-30T20:22:36.536Z,98050.41
2018-06-30T20:25:05.704Z,98050.70
2018-06-30T20:27:34.643Z,98056.02
2018-06-30T20:30:03.637Z,98057.36
2018-06-30T20:32:32.528Z,98051.73
2018-06-30T20:35:01.657Z,98059.85
2018-06-30T20:37:32.241Z,98070.88
2018-06-30T20:40:14.845Z,98071.09
2018-06-30T20:42:45.161Z,98077.47
2018-06-30T20:45:15.097Z,98069.98
2018-06-30T20:47:47.861Z,98079.40
2018-06-30T20:50:25.736Z,98082.31
2018-06-30T20:52:59.278Z,98084.28
2018-06-30T20:55:29.134Z,98085.95
2018-06-30T20:57:58.375Z,98088.72
2018-06-30T21:00:27.622Z,98089.32
2018-06-30T21:02:58.360Z,98095.97
2018-06-30T21:05:28.507Z,98105.73
2018-06-30T21:08:10.400Z,98099.92
2018-06-30T21:10:40.237Z,98107.95
2018-06-30T21:13:09.698Z,98109.11
2018-06-30T21:15:38.965Z,98108.13
2018-06-30T21:18:08.265Z,98116.08
2018-06-30T21:20:37.596Z,98114.65
2018-06-30T21:23:09.718Z,98116.44
2018-06-30T21:25:39.818Z,98121.13
2018-06-30T21:28:12.214Z,98119.52
2018-06-30T21:30:41.926Z,98130.42
2018-06-30T21:33:13.929Z,98124.92
2018-06-30T21:35:44.343Z,98135.13
2018-06-30T21:38:14.507Z,98142.21
2018-06-30T21:40:43.325Z,98136.86
2018-06-30T21:43:13.094Z,98140.77
2018-06-30T21:45:44.038Z,98142.03
2018-06-30T21:48:14.381Z,98146.39
2018-06-30T21:50:44.891Z,98144.20
2018-06-30T21:53:14.781Z,98149.83
2018-06-30T21:55:44.335Z,98146.88
2018-06-30T21:58:16.686Z,98155.19
2018-06-30T22:00:51.512Z,98152.76
2018-06-30T22:03:28.404Z,98155.95
2018-06-30T22:05:58.528Z,98160.42
2018-06-30T22:08:28.542Z,98164.16
2018-06-30T22:11:05.769Z,98165.39
2018-06-30T22:13:34.724Z,98159.13
2018-06-30T22:16:04.072Z,98164.16
2018-06-30T22:18:33.961Z,98157.43
2018-06-30T22:21:03.314Z,98154.80
2018-06-30T22:23:33.470Z,98161.55
2018-06-30T22:26:03.669Z,98159.70
2018-06-30T22:28:32.482Z,98155.77
2018-06-30T22:31:01.619Z,98156.69
2018-06-30T22:33:30.907Z,98165.00
2018-06-30T22:35:59.856Z,98154.39
2018-06-30T22:38:28.901Z,98161.36
2018-06-30T22:40:58.693Z,98152.80
2018-06-30T22:43:27.482Z,98153.73
2018-06-30T22:45:56.306Z,98152.50
2018-06-30T22:48:25.391Z,98162.39
2018-06-30T22:50:55.406Z,98152.82
2018-06-30T22:53:25.705Z,98159.05
2018-06-30T22:55:55.241Z,98159.98
2018-06-30T22:58:23.906Z,98167.47
2018-06-30T23:00:52.943Z,98160.62
2018-06-30T23:03:21.954Z,98159.80
2018-06-30T23:05:51.418Z,98165.52
2018-06-30T23:08:20.443Z,98163.66
2018-06-30T23:10:50.094Z,98159.96
2018-06-30T23:13:19.279Z,98158.33
2018-06-30T23:15:49.429Z,98166.33
2018-06-30T23:18:20.700Z,98169.36
2018-06-30T23:20:49.559Z,98169.64
2018-06-30T23:23:18.548Z,98170.70
2018-06-30T23:25:47.759Z,98162.95
2018-06-30T23:28:16.806Z,98172.31
2018-06-30T23:30:46.588Z,98167.08
2018-06-30T23:33:20.655Z,98169.67
2018-06-30T23:35:52.147Z,98165.48
2018-06-30T23:38:21.136Z,98173.64
2018-06-30T23:40:50.233Z,98174.20
2018-06-30T23:43:19.008Z,98177.63
2018-06-30T23:45:47.808Z,98173.80
2018-06-30T23:48:16.892Z,98184.52
2018-06-30T23:50:45.841Z,98178.81
2018-06-30T23:53:14.774Z,98182.64
2018-06-30T23:55:43.783Z,98186.26
2018-06-30T23:58:12.980Z,98188.77
